Al Kharsaah — C6VG3 — position and weather

sailwx.info

Track history (hours):
 
Tides and Currents Weather Stations Pressure Air Temp Water Temp Dewpoint Dewpoint Depression Visibility Wind Speed Wind Dir Waves Ship Positions

Al Kharsaah

Last reported at 2016-Apr-21 12:32 UTC. Time now 2016-Jun-01 05:31 UTC.
Position N 01°55' E 102°19'.
Warning: this ship's position is 40 days out of date.

Length 315 m; draft 9.4 m.

Type: Ship (hazmat cat D). MMSI: 309333000.

Date/timePositionNaut miles runAvg speedWind from/ knotsBaromVisibWave heightAir tempDewpointWater temp
2016-Apr-21 12:32N 01°55' E 102°19'1515.8
2016-Apr-21 11:33N 01°48' E 102°33'6514.9
2016-Apr-21 07:12N 01°13' E 103°27'6 9.7
2016-Apr-21 06:33N 01°12' E 103°33'6 5.6
2016-Apr-21 05:34N 01°11' E 103°39'9 8.5
2016-Apr-21 04:33N 01°10' E 103°47'1211.8
2016-Apr-21 03:33N 01°15' E 103°58'7 6.9
2016-Apr-21 02:33N 01°16' E 104°05'  
2016-Apr-15 21:16N 22°23' E 114°30'5413.3
2016-Apr-15 17:09N 21°29' E 114°33'915.0
2016-Apr-15 16:33N 21°20' E 114°32'  
Track history (hours):
 
Tides and Currents Weather Stations Pressure Air Temp Water Temp Dewpoint Dewpoint Depression Visibility Wind Speed Wind Dir Waves Ship Positions

Al Kharsaah

Last reported at 2016-Apr-21 12:32 UTC. Time now 2016-Jun-01 05:31 UTC.
Position N 01°55' E 102°19'.
Warning: this ship's position is 40 days out of date.

Length 315 m; draft 9.4 m.

Type: Ship (hazmat cat D). MMSI: 309333000.

Date/timePositionNaut miles runAvg speedWind from/ knotsBaromVisibWave heightAir tempDewpointWater temp
2016-Apr-21 12:32N 01°55' E 102°19'1515.8
2016-Apr-21 11:33N 01°48' E 102°33'6514.9
2016-Apr-21 07:12N 01°13' E 103°27'6 9.7
2016-Apr-21 06:33N 01°12' E 103°33'6 5.6
2016-Apr-21 05:34N 01°11' E 103°39'9 8.5
2016-Apr-21 04:33N 01°10' E 103°47'1211.8
2016-Apr-21 03:33N 01°15' E 103°58'7 6.9
2016-Apr-21 02:33N 01°16' E 104°05'  
2016-Apr-15 21:16N 22°23' E 114°30'5413.3
2016-Apr-15 17:09N 21°29' E 114°33'915.0
2016-Apr-15 16:33N 21°20' E 114°32'  

Dump ship's entire track history